Time;durP1;ratioP1;P1;durP2;ratioP2;P2;SDS_P1;SDS_P2;PMS_P1;PMS_P2;Temp;Humidity;BMP_temperature;BMP_pressure;BME280_temperature;BME280_humidity;BME280_pressure;Samples;Min_cycle;Max_cycle;Signal;HPM_P1;HPM_P2
2022/12/08 00:02:12;;;;;;;9.77;8.87;;;3.20;99.90;;;;;;5094969;28;20168;-75
2022/12/08 00:09:20;;;;;;;9.50;8.40;;;3.30;99.90;;;;;;5095911;28;20189;-75
2022/12/08 00:10:08;;;;;;;10.30;9.20;;;3.30;99.90;;;;;;5095784;28;20347;-75
2022/12/08 00:12:34;;;;;;;10.10;9.20;;;3.30;99.90;;;;;;5094555;28;20278;-75
2022/12/08 00:14:59;;;;;;;11.37;8.93;;;3.30;99.90;;;;;;5094088;28;20209;-75
2022/12/08 00:17:25;;;;;;;10.80;9.67;;;3.40;99.90;;;;;;5094664;28;20168;-75
2022/12/08 00:19:51;;;;;;;10.73;9.03;;;3.30;99.90;;;;;;5095006;28;20222;-75
2022/12/08 00:22:16;;;;;;;11.10;9.43;;;3.40;99.90;;;;;;5094103;28;20271;-75
2022/12/08 00:24:46;;;;;;;11.60;9.07;;;3.40;99.90;;;;;;5095535;28;20195;-75
2022/12/08 00:27:13;;;;;;;10.57;8.97;;;3.50;99.90;;;;;;5094035;28;20188;-75
2022/12/08 00:29:39;;;;;;;11.73;9.30;;;3.50;99.90;;;;;;5094316;28;20177;-75
2022/12/08 00:32:05;;;;;;;10.00;8.97;;;3.50;99.90;;;;;;5095384;28;20674;-75
2022/12/08 00:34:32;;;;;;;10.70;9.60;;;3.50;99.90;;;;;;5093745;28;20211;-75
2022/12/08 00:36:57;;;;;;;11.60;9.60;;;3.50;99.90;;;;;;5094597;28;20173;-75
2022/12/08 00:39:23;;;;;;;10.20;9.20;;;3.50;99.90;;;;;;5093701;28;20176;-75
2022/12/08 00:44:33;;;;;;;9.93;8.97;;;3.50;99.90;;;;;;5095174;28;20223;-75
2022/12/08 00:46:58;;;;;;;10.13;9.13;;;3.50;99.90;;;;;;5093750;28;20172;-75
2022/12/08 00:49:24;;;;;;;12.50;10.13;;;3.50;99.90;;;;;;5094238;28;20624;-75
2022/12/08 00:51:50;;;;;;;10.13;8.90;;;3.50;99.90;;;;;;5094782;28;20177;-75
2022/12/08 00:54:16;;;;;;;10.20;8.70;;;3.50;99.90;;;;;;5093669;28;20236;-75
2022/12/08 00:57:37;;;;;;;10.90;9.77;;;3.60;99.90;;;;;;5094716;28;20169;-75
2022/12/08 01:00:03;;;;;;;11.70;9.17;;;3.60;99.90;;;;;;5094395;28;20222;-75
2022/12/08 01:02:37;;;;;;;10.30;9.23;;;3.60;99.90;;;;;;5093392;28;20183;-75
2022/12/08 01:05:03;;;;;;;9.87;8.73;;;3.60;99.90;;;;;;5094194;28;20169;-75
2022/12/08 01:07:28;;;;;;;10.97;8.93;;;3.60;99.90;;;;;;5093603;28;20540;-75
2022/12/08 01:09:54;;;;;;;11.53;9.37;;;3.60;99.90;;;;;;5093134;28;20200;-75
2022/12/08 01:12:20;;;;;;;12.30;10.03;;;3.60;99.90;;;;;;5094277;28;20185;-75
2022/12/08 01:14:45;;;;;;;10.77;9.00;;;3.60;99.90;;;;;;5092851;28;20319;-75
2022/12/08 01:17:11;;;;;;;11.03;9.83;;;3.50;99.90;;;;;;5094904;28;20180;-75
2022/12/08 01:19:36;;;;;;;10.33;9.33;;;3.50;99.90;;;;;;5093026;28;20180;-75
2022/12/08 01:22:02;;;;;;;13.90;10.40;;;3.50;99.90;;;;;;5093307;28;20554;-75
2022/12/08 01:24:27;;;;;;;14.93;10.50;;;3.50;99.90;;;;;;5094147;28;20246;-75
2022/12/08 01:26:53;;;;;;;12.73;10.50;;;3.50;99.90;;;;;;5094662;28;20213;-75
2022/12/08 01:29:18;;;;;;;13.03;10.37;;;3.40;99.90;;;;;;5093549;28;20189;-75
2022/12/08 01:31:44;;;;;;;12.30;11.07;;;3.50;99.90;;;;;;5093160;28;20180;-75
2022/12/08 01:34:10;;;;;;;13.50;10.87;;;3.50;99.90;;;;;;5092957;28;20212;-75
2022/12/08 01:36:37;;;;;;;11.87;10.63;;;3.50;99.90;;;;;;5092732;28;20212;-75
2022/12/08 01:39:05;;;;;;;12.70;10.97;;;3.40;99.90;;;;;;5094184;28;20179;-75
2022/12/08 01:41:33;;;;;;;13.00;11.70;;;3.50;99.90;;;;;;5093528;28;20187;-75
2022/12/08 01:44:03;;;;;;;14.20;11.60;;;3.50;99.90;;;;;;5093767;28;20197;-75
2022/12/08 01:46:33;;;;;;;13.73;11.60;;;3.40;99.90;;;;;;5093391;28;20180;-75
2022/12/08 01:49:07;;;;;;;14.73;12.20;;;3.50;99.90;;;;;;5092904;28;20181;-75
2022/12/08 01:51:56;;;;;;;15.40;12.30;;;3.40;99.90;;;;;;5092938;28;20221;-75
2022/12/08 01:54:27;;;;;;;14.03;12.60;;;3.40;99.90;;;;;;5091502;28;20235;-75
2022/12/08 01:57:04;;;;;;;14.07;12.23;;;3.50;99.90;;;;;;5092558;28;20233;-75
2022/12/08 01:59:33;;;;;;;13.43;12.03;;;3.50;99.90;;;;;;5092478;28;20301;-75
2022/12/08 02:01:59;;;;;;;17.90;12.70;;;3.50;99.90;;;;;;5092423;28;20184;-75
2022/12/08 02:04:24;;;;;;;14.17;12.67;;;3.50;99.90;;;;;;5092270;28;20204;-75
2022/12/08 02:06:51;;;;;;;15.17;13.10;;;3.60;99.90;;;;;;5093822;28;20208;-75
2022/12/08 02:09:18;;;;;;;13.63;11.43;;;3.50;99.90;;;;;;5092287;28;20181;-75
2022/12/08 02:11:44;;;;;;;14.03;11.93;;;3.60;99.90;;;;;;5093778;28;20177;-75
2022/12/08 02:14:12;;;;;;;13.50;11.73;;;3.60;99.90;;;;;;5093215;28;20219;-75
2022/12/08 02:17:00;;;;;;;13.10;11.67;;;3.60;99.90;;;;;;5093084;28;20177;-75
2022/12/08 02:19:29;;;;;;;14.07;12.57;;;3.60;99.90;;;;;;5092428;28;20199;-75
2022/12/08 02:22:07;;;;;;;13.63;11.70;;;3.60;99.90;;;;;;5093458;28;20184;-75
2022/12/08 02:24:44;;;;;;;13.67;11.90;;;3.60;99.90;;;;;;5093662;28;20208;-75
2022/12/08 02:27:15;;;;;;;14.77;12.67;;;3.60;99.90;;;;;;5092208;28;20188;-75
2022/12/08 02:29:59;;;;;;;13.50;12.10;;;3.60;99.90;;;;;;5092087;28;20238;-75
2022/12/08 02:32:28;;;;;;;13.23;11.83;;;3.60;99.90;;;;;;5091952;28;20233;-75
2022/12/08 02:35:13;;;;;;;15.30;12.53;;;3.60;99.90;;;;;;5092080;28;20354;-75
2022/12/08 02:37:47;;;;;;;14.13;12.53;;;3.60;99.90;;;;;;5093303;28;20157;-75
2022/12/08 02:40:42;;;;;;;15.67;12.97;;;3.50;99.90;;;;;;5092689;28;20306;-75
2022/12/08 02:43:26;;;;;;;15.93;12.70;;;3.50;99.90;;;;;;5086825;28;20205;-75
2022/12/08 02:46:03;;;;;;;15.50;13.27;;;3.50;99.90;;;;;;5092876;28;20180;-75
2022/12/08 02:48:31;;;;;;;14.10;12.30;;;3.40;99.90;;;;;;5093214;28;20176;-75
2022/12/08 02:50:57;;;;;;;14.90;12.77;;;3.40;99.90;;;;;;5093427;28;20651;-75
2022/12/08 02:53:23;;;;;;;15.27;13.67;;;3.30;99.90;;;;;;5091866;28;20199;-75
2022/12/08 02:56:16;;;;;;;15.43;13.00;;;3.30;99.90;;;;;;5092735;28;20204;-75
2022/12/08 02:59:16;;;;;;;15.23;12.47;;;3.30;99.90;;;;;;5092802;28;20173;-75
2022/12/08 03:01:52;;;;;;;14.97;12.73;;;3.20;99.90;;;;;;5095470;28;20173;-75
2022/12/08 03:04:25;;;;;;;14.57;13.03;;;3.30;99.90;;;;;;5096898;28;20197;-75
2022/12/08 03:07:19;;;;;;;14.13;12.67;;;3.30;99.90;;;;;;5096500;28;20176;-75
2022/12/08 03:10:04;;;;;;;16.50;13.40;;;3.30;99.90;;;;;;5095590;28;20191;-75
2022/12/08 03:12:41;;;;;;;16.77;12.50;;;3.30;99.90;;;;;;5096332;28;20177;-75
2022/12/08 03:15:13;;;;;;;14.67;12.87;;;3.40;99.90;;;;;;5095294;28;20372;-75
2022/12/08 03:17:42;;;;;;;15.20;13.00;;;3.40;99.90;;;;;;5095458;28;20165;-75
2022/12/08 03:20:12;;;;;;;16.87;13.40;;;3.40;99.90;;;;;;5096582;28;20169;-75
2022/12/08 03:22:40;;;;;;;15.07;13.20;;;3.40;99.90;;;;;;5096731;28;20529;-75
2022/12/08 03:25:08;;;;;;;17.97;14.07;;;3.40;99.90;;;;;;5095214;28;20181;-75
2022/12/08 03:27:33;;;;;;;15.70;14.10;;;3.30;99.90;;;;;;5095234;28;20195;-75
2022/12/08 03:30:00;;;;;;;18.50;14.20;;;3.30;99.90;;;;;;5096735;28;20252;-75
2022/12/08 03:32:57;;;;;;;19.63;13.50;;;3.40;99.90;;;;;;5096601;28;20177;-75
2022/12/08 03:35:25;;;;;;;15.30;13.70;;;3.40;99.90;;;;;;5096206;28;20189;-75
2022/12/08 03:37:51;;;;;;;16.40;13.70;;;3.40;99.90;;;;;;5095359;28;20180;-75
2022/12/08 03:40:19;;;;;;;15.97;14.23;;;3.40;99.90;;;;;;5096198;28;20173;-75
2022/12/08 03:42:44;;;;;;;14.57;13.00;;;3.40;99.90;;;;;;5095130;28;20188;-75
2022/12/08 03:45:10;;;;;;;15.37;13.20;;;3.40;99.90;;;;;;5096059;28;20194;-75
2022/12/08 03:47:36;;;;;;;15.90;12.77;;;3.40;99.90;;;;;;5095186;28;20204;-75
2022/12/08 03:50:01;;;;;;;20.13;13.67;;;3.40;99.90;;;;;;5096340;28;20179;-75
2022/12/08 03:52:27;;;;;;;16.93;13.67;;;3.40;99.90;;;;;;5094961;28;20267;-75
2022/12/08 03:54:52;;;;;;;21.07;13.57;;;3.40;99.90;;;;;;5096091;28;20270;-75
2022/12/08 03:57:18;;;;;;;14.73;13.20;;;3.40;99.90;;;;;;5094752;28;20173;-75
2022/12/08 03:59:43;;;;;;;19.93;13.70;;;3.40;99.90;;;;;;5094918;28;20208;-75
2022/12/08 04:02:09;;;;;;;20.47;13.90;;;3.40;99.90;;;;;;5094551;28;20212;-75
2022/12/08 04:04:34;;;;;;;20.67;18.57;;;3.40;99.90;;;;;;5094529;28;20201;-75
2022/12/08 04:07:00;;;;;;;22.50;17.87;;;3.40;99.90;;;;;;5094981;28;20185;-75
2022/12/08 04:09:25;;;;;;;18.27;16.03;;;3.40;99.90;;;;;;5094747;28;20553;-75
2022/12/08 04:11:51;;;;;;;15.27;13.73;;;3.40;99.90;;;;;;5094179;28;20181;-75
2022/12/08 04:14:16;;;;;;;17.23;15.40;;;3.40;99.90;;;;;;5095242;28;20223;-75
2022/12/08 04:16:42;;;;;;;16.00;14.30;;;3.40;99.90;;;;;;5094252;28;20185;-75
2022/12/08 04:19:07;;;;;;;15.87;14.03;;;3.40;99.90;;;;;;5094286;28;20179;-75
2022/12/08 04:21:33;;;;;;;19.73;14.67;;;3.50;99.90;;;;;;5094205;28;20173;-75
2022/12/08 04:23:59;;;;;;;16.97;13.93;;;3.40;99.90;;;;;;5094319;28;20202;-75
2022/12/08 04:26:24;;;;;;;16.93;14.87;;;3.40;99.90;;;;;;5094048;28;20198;-75
2022/12/08 04:28:50;;;;;;;18.03;14.10;;;3.40;99.90;;;;;;5094910;28;20212;-75
2022/12/08 04:31:15;;;;;;;16.40;13.87;;;3.40;99.90;;;;;;5094238;28;20181;-75
2022/12/08 04:33:41;;;;;;;18.43;14.83;;;3.40;99.90;;;;;;5095044;28;20231;-75
2022/12/08 04:36:07;;;;;;;17.80;14.77;;;3.40;99.90;;;;;;5096189;28;20192;-75
2022/12/08 04:38:33;;;;;;;18.27;14.80;;;3.40;99.90;;;;;;5094993;28;20181;-75
2022/12/08 04:40:58;;;;;;;18.27;13.83;;;3.40;99.90;;;;;;5095049;28;20199;-75
2022/12/08 04:43:24;;;;;;;17.77;14.13;;;3.50;99.90;;;;;;5094876;28;20197;-75
2022/12/08 04:45:49;;;;;;;18.37;14.83;;;3.40;99.90;;;;;;5094582;28;20252;-75
2022/12/08 04:48:16;;;;;;;19.30;14.77;;;3.50;99.90;;;;;;5094019;28;20177;-75
2022/12/08 04:50:43;;;;;;;19.20;15.27;;;3.40;99.90;;;;;;5093680;28;20181;-75
2022/12/08 04:53:10;;;;;;;17.77;13.83;;;3.40;99.90;;;;;;5093577;28;20200;-75
2022/12/08 04:55:43;;;;;;;19.90;14.53;;;3.50;99.90;;;;;;5094978;28;20242;-75
2022/12/08 04:58:17;;;;;;;18.20;14.40;;;3.40;99.90;;;;;;5094711;28;20157;-75
2022/12/08 05:00:43;;;;;;;17.30;14.10;;;3.50;99.90;;;;;;5093773;28;20187;-75
2022/12/08 05:03:09;;;;;;;22.23;14.33;;;3.50;99.90;;;;;;5093639;28;20205;-75
2022/12/08 05:05:34;;;;;;;18.77;15.27;;;3.50;99.90;;;;;;5095167;28;20200;-75
2022/12/08 05:08:00;;;;;;;17.50;14.53;;;3.50;99.90;;;;;;5093829;28;20180;-75
2022/12/08 05:10:26;;;;;;;17.73;13.90;;;3.50;99.90;;;;;;5094743;28;20177;-75
2022/12/08 05:12:51;;;;;;;23.17;14.53;;;3.50;99.90;;;;;;5094597;28;20192;-75
2022/12/08 05:15:17;;;;;;;15.70;13.77;;;3.40;99.90;;;;;;5093553;28;20217;-75
2022/12/08 05:17:42;;;;;;;17.67;14.57;;;3.40;99.90;;;;;;5093112;28;20184;-75
2022/12/08 05:20:09;;;;;;;17.87;14.93;;;3.40;99.90;;;;;;5093051;28;20251;-75
2022/12/08 05:22:34;;;;;;;20.17;15.77;;;3.40;99.90;;;;;;5092875;28;20177;-75
2022/12/08 05:25:00;;;;;;;19.90;16.73;;;3.40;99.90;;;;;;5094027;28;20183;-75
2022/12/08 05:27:26;;;;;;;18.47;15.07;;;3.40;99.90;;;;;;5093823;28;20187;-75
2022/12/08 05:29:51;;;;;;;17.47;14.33;;;3.40;99.90;;;;;;5093257;28;20177;-75
2022/12/08 05:32:17;;;;;;;18.97;15.37;;;3.30;99.90;;;;;;5092926;28;20238;-75
2022/12/08 05:34:42;;;;;;;19.10;15.63;;;3.30;99.90;;;;;;5093341;28;20303;-75
2022/12/08 05:37:08;;;;;;;27.60;23.43;;;3.30;99.90;;;;;;5093650;28;20176;-75
2022/12/08 05:39:34;;;;;;;25.20;20.53;;;3.30;99.90;;;;;;5092727;28;20233;-75
2022/12/08 05:41:59;;;;;;;23.90;21.30;;;3.30;99.90;;;;;;5092734;28;20183;-75
2022/12/08 05:44:25;;;;;;;20.10;17.30;;;3.30;99.90;;;;;;5092614;28;20227;-75
2022/12/08 05:46:51;;;;;;;19.63;17.53;;;3.30;99.90;;;;;;5092737;28;20181;-75
2022/12/08 05:49:17;;;;;;;21.33;17.57;;;3.20;99.90;;;;;;5092610;28;20212;-75
2022/12/08 05:51:42;;;;;;;18.57;16.00;;;3.20;99.90;;;;;;5093679;28;20623;-75
2022/12/08 05:54:08;;;;;;;20.07;15.47;;;3.20;99.90;;;;;;5092828;28;20307;-75
2022/12/08 05:56:34;;;;;;;16.70;14.43;;;3.20;99.90;;;;;;5092473;28;20177;-76
2022/12/08 05:58:59;;;;;;;18.43;15.50;;;3.20;99.90;;;;;;5092458;28;20176;-75
2022/12/08 06:01:28;;;;;;;17.60;14.97;;;3.20;99.90;;;;;;5092511;28;20177;-75
2022/12/08 06:03:57;;;;;;;18.27;14.87;;;3.30;99.90;;;;;;5092584;28;20250;-75
2022/12/08 06:06:23;;;;;;;20.77;15.83;;;3.20;99.90;;;;;;5093567;28;20191;-75
2022/12/08 06:08:48;;;;;;;19.10;15.00;;;3.30;99.90;;;;;;5092724;28;20556;-75
2022/12/08 06:11:28;;;;;;;16.63;14.30;;;3.30;99.90;;;;;;5092271;28;20318;-75
2022/12/08 06:13:55;;;;;;;19.97;15.57;;;3.30;99.90;;;;;;5093397;28;20204;-75
2022/12/08 06:16:21;;;;;;;16.90;15.10;;;3.30;99.90;;;;;;5091960;28;20208;-75
2022/12/08 06:18:51;;;;;;;18.03;14.83;;;3.30;99.90;;;;;;5092510;28;20636;-75
2022/12/08 06:21:18;;;;;;;101.77;57.10;;;3.30;99.90;;;;;;5092569;28;20173;-75
2022/12/08 06:23:46;;;;;;;23.57;20.40;;;3.30;99.90;;;;;;5093359;28;20207;-75
2022/12/08 06:26:14;;;;;;;20.23;17.60;;;3.30;99.90;;;;;;5092157;28;20195;-75
2022/12/08 06:28:41;;;;;;;21.33;18.23;;;3.30;99.90;;;;;;5093654;28;20184;-75
2022/12/08 06:31:18;;;;;;;21.13;17.57;;;3.30;99.90;;;;;;5093534;28;20178;-81
2022/12/08 06:33:44;;;;;;;22.40;17.00;;;3.30;99.90;;;;;;5093398;28;20199;-75
2022/12/08 06:36:15;;;;;;;25.47;18.10;;;3.40;99.90;;;;;;5094167;28;20185;-75
2022/12/08 06:38:41;;;;;;;21.23;17.47;;;3.30;99.90;;;;;;5097414;28;20192;-75
2022/12/08 06:41:07;;;;;;;22.50;18.67;;;3.40;99.90;;;;;;5097016;28;20208;-75
2022/12/08 06:43:33;;;;;;;22.00;17.67;;;3.30;99.90;;;;;;5097236;28;20193;-75
2022/12/08 06:45:59;;;;;;;20.30;17.80;;;3.40;99.90;;;;;;5096058;28;20248;-74
2022/12/08 06:48:25;;;;;;;18.33;15.97;;;3.30;99.90;;;;;;5097284;28;20169;-75
2022/12/08 06:50:51;;;;;;;16.50;14.73;;;3.30;99.90;;;;;;5097111;28;20176;-75
2022/12/08 06:53:37;;;;;;;17.27;14.73;;;3.30;99.90;;;;;;5097265;28;20204;-75
2022/12/08 06:56:03;;;;;;;20.63;17.20;;;3.30;99.90;;;;;;5095760;28;20205;-74
2022/12/08 06:58:29;;;;;;;17.90;16.00;;;3.30;99.90;;;;;;5096181;28;20543;-74
2022/12/08 07:00:56;;;;;;;18.50;16.50;;;3.30;99.90;;;;;;5096500;28;20179;-74
2022/12/08 07:03:22;;;;;;;26.10;21.63;;;3.30;99.90;;;;;;5096669;28;20193;-74
2022/12/08 07:05:47;;;;;;;24.13;21.73;;;3.30;99.90;;;;;;5096804;28;20181;-74
2022/12/08 07:08:13;;;;;;;22.07;19.77;;;3.30;99.90;;;;;;5096128;28;20181;-74
2022/12/08 07:10:39;;;;;;;21.83;19.53;;;3.30;99.90;;;;;;5096620;28;20230;-74
2022/12/08 07:13:23;;;;;;;28.70;19.90;;;3.30;99.90;;;;;;5095371;28;20199;-74
2022/12/08 07:15:49;;;;;;;21.37;18.93;;;3.30;99.90;;;;;;5096059;28;20212;-79
2022/12/08 07:18:14;;;;;;;19.07;17.07;;;3.40;99.90;;;;;;5095789;28;20194;-74
2022/12/08 07:20:40;;;;;;;27.57;23.97;;;3.40;99.90;;;;;;5096846;28;20216;-75
2022/12/08 07:23:05;;;;;;;26.50;23.67;;;3.40;99.90;;;;;;5095316;28;20201;-75
2022/12/08 07:25:32;;;;;;;20.67;18.47;;;3.40;99.90;;;;;;5095430;28;20267;-75
2022/12/08 07:27:58;;;;;;;72.23;58.83;;;3.40;99.90;;;;;;5095612;28;20667;-75
2022/12/08 07:30:23;;;;;;;22.73;19.50;;;3.40;99.90;;;;;;5095564;28;20192;-75
2022/12/08 07:32:49;;;;;;;19.47;17.10;;;3.30;99.90;;;;;;5096459;28;20215;-75
2022/12/08 07:35:14;;;;;;;30.63;25.67;;;3.40;99.90;;;;;;5094614;28;20287;-74
2022/12/08 07:37:40;;;;;;;15.37;13.80;;;3.40;99.90;;;;;;5093243;28;20203;-74
2022/12/08 07:40:07;;;;;;;17.83;15.97;;;3.40;99.90;;;;;;5095300;28;20180;-74
2022/12/08 07:42:33;;;;;;;17.53;15.73;;;3.50;99.90;;;;;;5096748;28;20177;-74
2022/12/08 07:44:59;;;;;;;17.50;15.73;;;3.50;99.90;;;;;;5095091;28;20230;-74
2022/12/08 07:47:25;;;;;;;25.40;21.03;;;3.50;99.90;;;;;;5095862;28;20188;-74
2022/12/08 07:49:50;;;;;;;34.30;30.60;;;3.60;99.90;;;;;;5094982;28;20181;-74
2022/12/08 07:52:16;;;;;;;20.20;16.00;;;3.50;99.90;;;;;;5096290;28;20188;-74
2022/12/08 07:54:41;;;;;;;17.73;15.20;;;3.60;99.90;;;;;;5094668;28;20212;-74
2022/12/08 07:57:08;;;;;;;25.67;21.83;;;3.60;99.90;;;;;;5095633;28;20181;-74
2022/12/08 07:59:34;;;;;;;27.53;23.10;;;3.70;99.90;;;;;;5094633;28;20640;-74
2022/12/08 08:02:00;;;;;;;22.87;19.27;;;3.60;99.90;;;;;;5095780;28;20188;-74
2022/12/08 08:04:25;;;;;;;15.13;13.30;;;3.60;99.90;;;;;;5094490;28;20204;-74
2022/12/08 08:06:51;;;;;;;14.23;12.33;;;3.60;99.90;;;;;;5094790;28;20173;-74
2022/12/08 08:09:16;;;;;;;13.53;12.07;;;3.60;99.90;;;;;;5095661;28;20339;-74
2022/12/08 08:11:42;;;;;;;14.77;12.67;;;3.60;99.90;;;;;;5094645;28;20650;-74
2022/12/08 08:14:07;;;;;;;14.70;13.20;;;3.60;99.90;;;;;;5095474;28;20242;-74
2022/12/08 08:16:33;;;;;;;15.60;14.00;;;3.70;99.90;;;;;;5094309;28;20208;-74
2022/12/08 08:18:58;;;;;;;14.60;13.10;;;3.60;99.90;;;;;;5094580;28;20173;-74
2022/12/08 08:21:24;;;;;;;16.47;12.77;;;3.70;99.90;;;;;;5095350;28;20187;-74
2022/12/08 08:23:50;;;;;;;15.43;12.53;;;3.70;99.90;;;;;;5095970;28;20271;-74
2022/12/08 08:26:15;;;;;;;15.97;13.37;;;3.70;99.90;;;;;;5095579;28;20255;-74
2022/12/08 08:28:42;;;;;;;16.50;13.03;;;3.70;99.90;;;;;;5094175;28;20177;-74
2022/12/08 08:31:08;;;;;;;14.30;12.80;;;3.70;99.90;;;;;;5094396;28;20181;-74
2022/12/08 08:33:33;;;;;;;14.37;12.03;;;3.80;99.90;;;;;;5094814;28;20204;-74
2022/12/08 08:35:59;;;;;;;16.40;13.63;;;3.80;99.90;;;;;;5093795;28;20213;-74
2022/12/08 08:38:24;;;;;;;14.87;12.97;;;3.70;99.90;;;;;;5093936;28;20173;-74
2022/12/08 08:40:50;;;;;;;14.57;12.10;;;3.70;99.90;;;;;;5095196;28;20252;-74
2022/12/08 08:43:28;;;;;;;12.87;11.53;;;3.70;99.90;;;;;;5095233;28;20207;-74
2022/12/08 08:45:58;;;;;;;14.47;12.87;;;3.80;99.90;;;;;;5093837;28;20270;-74
2022/12/08 08:48:24;;;;;;;13.60;11.57;;;3.70;99.90;;;;;;5093727;28;20180;-74
2022/12/08 08:50:50;;;;;;;13.57;11.37;;;3.80;99.90;;;;;;5093700;28;20191;-74
2022/12/08 08:53:15;;;;;;;12.97;11.60;;;3.80;99.90;;;;;;5094997;28;20283;-74
2022/12/08 08:55:41;;;;;;;14.00;12.50;;;3.90;99.90;;;;;;5094938;28;20304;-74
2022/12/08 08:58:06;;;;;;;15.47;12.87;;;4.00;99.90;;;;;;5092961;28;20212;-74
2022/12/08 09:00:32;;;;;;;13.03;11.40;;;3.90;99.90;;;;;;5093966;28;20173;-74
2022/12/08 09:02:58;;;;;;;13.53;12.23;;;3.90;99.90;;;;;;5094837;28;20201;-74
2022/12/08 09:05:23;;;;;;;16.00;13.10;;;4.00;99.90;;;;;;5094106;28;20185;-74
2022/12/08 09:07:49;;;;;;;14.13;12.57;;;3.90;99.90;;;;;;5093606;28;20185;-74
2022/12/08 09:10:14;;;;;;;15.23;12.10;;;3.90;99.90;;;;;;5093799;28;20187;-74
2022/12/08 09:12:40;;;;;;;13.83;11.40;;;4.00;99.90;;;;;;5093216;28;20257;-74
2022/12/08 09:15:06;;;;;;;13.47;11.43;;;3.90;99.90;;;;;;5093373;28;20285;-74
2022/12/08 09:17:31;;;;;;;13.20;11.30;;;3.90;99.90;;;;;;5093018;28;20694;-74
2022/12/08 09:19:57;;;;;;;13.53;10.97;;;3.90;99.90;;;;;;5094253;28;20172;-74
2022/12/08 09:22:22;;;;;;;12.87;11.53;;;3.80;99.90;;;;;;5092977;28;20250;-74
2022/12/08 09:24:48;;;;;;;12.73;11.43;;;3.80;99.90;;;;;;5093295;28;20528;-74
2022/12/08 09:27:14;;;;;;;13.83;10.97;;;3.80;99.90;;;;;;5094070;28;20230;-74
2022/12/08 09:29:39;;;;;;;13.60;11.97;;;3.90;99.90;;;;;;5094468;28;20208;-74
2022/12/08 09:32:05;;;;;;;13.07;10.57;;;4.00;99.90;;;;;;5094366;28;20226;-74
2022/12/08 09:34:30;;;;;;;11.70;10.43;;;4.10;99.90;;;;;;5092658;28;20231;-74
2022/12/08 09:36:56;;;;;;;45.17;27.60;;;4.10;99.90;;;;;;5093971;28;20173;-75
2022/12/08 09:39:22;;;;;;;40.53;26.23;;;4.20;99.90;;;;;;5092996;28;20183;-75
2022/12/08 09:41:58;;;;;;;23.90;19.67;;;4.20;99.90;;;;;;5093138;28;20184;-75
2022/12/08 09:44:46;;;;;;;17.43;14.43;;;4.20;99.90;;;;;;5093913;28;20718;-75
2022/12/08 09:47:17;;;;;;;14.50;12.60;;;4.30;99.90;;;;;;5093572;28;20226;-75
2022/12/08 09:49:50;;;;;;;15.07;12.03;;;4.30;99.90;;;;;;5093460;28;20181;-75
2022/12/08 09:52:27;;;;;;;12.30;10.87;;;4.40;99.90;;;;;;5093819;28;20183;-75
2022/12/08 09:54:58;;;;;;;12.87;10.70;;;4.50;99.90;;;;;;5092534;28;20211;-75
2022/12/08 09:57:24;;;;;;;10.17;9.17;;;4.60;99.90;;;;;;5092513;28;20260;-75
2022/12/08 10:00:01;;;;;;;11.30;9.90;;;4.70;99.90;;;;;;5093979;28;20222;-75
2022/12/08 10:02:28;;;;;;;9.43;8.53;;;4.70;99.90;;;;;;5093111;28;20173;-75
2022/12/08 10:04:55;;;;;;;10.30;8.83;;;4.60;99.90;;;;;;5093356;28;20280;-75
2022/12/08 10:07:43;;;;;;;9.57;8.67;;;4.60;99.90;;;;;;5093602;28;20176;-75
2022/12/08 10:10:46;;;;;;;9.93;8.93;;;4.50;99.90;;;;;;5092189;28;20234;-75
2022/12/08 10:13:31;;;;;;;10.87;9.13;;;4.60;99.90;;;;;;4995137;28;20199;-75
2022/12/08 10:16:07;;;;;;;9.03;8.13;;;4.60;99.90;;;;;;5086091;28;20224;-75
2022/12/08 10:18:33;;;;;;;9.30;8.40;;;4.70;99.90;;;;;;5092318;28;20271;-75
2022/12/08 10:21:15;;;;;;;12.97;9.10;;;4.80;99.90;;;;;;5092692;28;20176;-75
2022/12/08 10:23:44;;;;;;;10.00;8.73;;;4.80;99.90;;;;;;5092582;28;20651;-75
2022/12/08 10:26:16;;;;;;;10.93;9.30;;;4.80;99.90;;;;;;5092457;28;20223;-75
2022/12/08 10:28:42;;;;;;;10.37;8.70;;;4.90;99.90;;;;;;5092166;28;20181;-75
2022/12/08 10:31:20;;;;;;;9.33;8.33;;;5.00;99.90;;;;;;5093428;28;20184;-75
2022/12/08 10:33:51;;;;;;;9.73;8.83;;;5.00;99.90;;;;;;5093676;28;20227;-75
2022/12/08 10:36:17;;;;;;;10.00;8.33;;;5.00;99.90;;;;;;5092365;28;20763;-75
2022/12/08 10:38:42;;;;;;;8.90;8.10;;;5.00;99.90;;;;;;5092447;28;20200;-75
2022/12/08 10:41:13;;;;;;;8.97;8.07;;;5.20;99.90;;;;;;5092310;28;20654;-75
2022/12/08 10:43:58;;;;;;;8.67;7.87;;;5.20;99.90;;;;;;5093452;28;20201;-75
2022/12/08 10:46:25;;;;;;;8.70;7.80;;;5.20;99.90;;;;;;5092902;28;20180;-75
2022/12/08 10:49:09;;;;;;;8.90;7.43;;;5.20;99.90;;;;;;5093480;28;20259;-75
2022/12/08 10:51:38;;;;;;;10.50;7.73;;;5.20;99.90;;;;;;5091970;28;20222;-75
2022/12/08 10:54:07;;;;;;;9.57;7.97;;;5.20;99.90;;;;;;5093206;28;20289;-75
2022/12/08 10:56:33;;;;;;;8.40;7.50;;;5.30;99.90;;;;;;5091899;28;20231;-75
2022/12/08 10:59:17;;;;;;;8.97;7.60;;;5.30;99.90;;;;;;5093351;28;20173;-75
2022/12/08 11:01:48;;;;;;;9.03;7.63;;;5.20;99.90;;;;;;5092649;28;20616;-75
2022/12/08 11:04:40;;;;;;;9.83;7.80;;;5.20;99.90;;;;;;5092074;28;20201;-75
2022/12/08 11:07:09;;;;;;;9.13;7.10;;;5.20;99.90;;;;;;5087083;28;20216;-75
2022/12/08 11:09:45;;;;;;;8.07;7.37;;;5.30;99.90;;;;;;5091725;28;20181;-75
2022/12/08 11:12:19;;;;;;;8.90;7.97;;;5.20;99.90;;;;;;5092700;28;20180;-75
2022/12/08 11:14:44;;;;;;;8.87;8.00;;;5.10;99.90;;;;;;5092206;28;20307;-75
2022/12/08 11:17:22;;;;;;;17.07;13.70;;;5.00;99.90;;;;;;5091717;28;20223;-75
2022/12/08 11:20:00;;;;;;;15.80;12.27;;;5.00;99.90;;;;;;5092009;28;20204;-75
2022/12/08 11:22:29;;;;;;;12.33;10.43;;;5.00;99.90;;;;;;5093234;28;20208;-75
2022/12/08 11:25:26;;;;;;;15.63;13.03;;;5.10;99.90;;;;;;5095368;28;20173;-75
2022/12/08 11:27:56;;;;;;;13.33;11.03;;;5.00;99.90;;;;;;5096826;28;20188;-75
2022/12/08 11:30:42;;;;;;;10.67;9.43;;;4.90;99.90;;;;;;5095485;28;20237;-75
2022/12/08 11:33:15;;;;;;;9.63;8.70;;;4.80;99.90;;;;;;5095960;28;20213;-75
2022/12/08 11:35:43;;;;;;;12.87;10.63;;;4.80;99.90;;;;;;5096204;28;20295;-75
2022/12/08 11:38:13;;;;;;;10.03;9.03;;;4.80;99.90;;;;;;5095051;28;20176;-75
2022/12/08 11:40:41;;;;;;;20.30;16.97;;;4.80;99.90;;;;;;5095014;28;20181;-75
2022/12/08 11:43:29;;;;;;;9.60;8.60;;;4.90;99.90;;;;;;5094851;28;20193;-75
2022/12/08 11:46:13;;;;;;;8.10;7.30;;;4.90;99.90;;;;;;5095069;28;20659;-75
2022/12/08 11:48:52;;;;;;;9.77;7.80;;;4.90;99.90;;;;;;5096044;28;20256;-75
2022/12/08 11:51:29;;;;;;;8.20;7.47;;;4.90;99.90;;;;;;5096675;28;20167;-75
2022/12/08 11:54:25;;;;;;;9.27;7.90;;;4.80;99.90;;;;;;5095939;28;20249;-75
2022/12/08 11:56:54;;;;;;;7.80;7.07;;;4.80;99.90;;;;;;5094742;28;20203;-75
2022/12/08 11:59:30;;;;;;;7.40;6.70;;;4.70;99.90;;;;;;5096293;28;20173;-75
2022/12/08 12:01:58;;;;;;;11.83;9.83;;;4.80;99.90;;;;;;5095875;28;20164;-75
2022/12/08 12:04:51;;;;;;;10.93;9.63;;;4.70;99.90;;;;;;5094767;28;20199;-75
2022/12/08 12:07:46;;;;;;;12.87;11.63;;;4.70;99.90;;;;;;5094531;28;20570;-75
2022/12/08 12:10:44;;;;;;;9.30;8.40;;;4.70;99.90;;;;;;5094406;28;20177;-75
2022/12/08 12:13:31;;;;;;;7.97;7.20;;;4.70;99.90;;;;;;5095298;28;20268;-75
2022/12/08 12:16:12;;;;;;;7.40;6.60;;;4.70;99.90;;;;;;5096547;28;20216;-75
2022/12/08 12:18:45;;;;;;;7.70;7.00;;;4.60;99.90;;;;;;5094922;28;20177;-75
2022/12/08 12:21:20;;;;;;;7.63;6.93;;;4.70;99.90;;;;;;5095208;28;20219;-75
2022/12/08 12:23:58;;;;;;;8.83;7.70;;;4.70;99.90;;;;;;5094153;28;20193;-75
2022/12/08 12:26:30;;;;;;;7.53;6.87;;;4.60;99.90;;;;;;5094795;28;20225;-75
2022/12/08 12:29:02;;;;;;;8.10;6.67;;;4.70;99.90;;;;;;5095022;28;20252;-75
2022/12/08 12:31:32;;;;;;;6.67;6.07;;;4.80;99.90;;;;;;5094952;28;20173;-75
2022/12/08 12:34:14;;;;;;;6.60;6.00;;;4.80;99.90;;;;;;5095448;28;20673;-75
2022/12/08 12:37:05;;;;;;;6.30;5.70;;;4.70;99.90;;;;;;5094105;28;20322;-75
2022/12/08 12:39:34;;;;;;;6.83;6.23;;;4.90;99.90;;;;;;5095678;28;20172;-75
2022/12/08 12:42:01;;;;;;;6.07;5.57;;;5.00;99.90;;;;;;5093955;28;20184;-75
2022/12/08 12:44:27;;;;;;;5.77;5.27;;;5.00;99.90;;;;;;5094999;28;20200;-75
2022/12/08 12:46:58;;;;;;;5.87;5.30;;;5.10;99.90;;;;;;5095045;28;20188;-75
2022/12/08 12:49:39;;;;;;;5.83;5.23;;;5.10;99.90;;;;;;5093710;28;20177;-75
2022/12/08 12:52:25;;;;;;;5.63;5.07;;;5.20;99.90;;;;;;5093951;28;20191;-75
2022/12/08 12:54:51;;;;;;;6.10;4.87;;;5.30;99.90;;;;;;5094066;28;20216;-75
2022/12/08 12:57:17;;;;;;;5.77;5.20;;;5.30;99.90;;;;;;5093616;28;20558;-75
2022/12/08 12:59:44;;;;;;;5.43;5.03;;;5.30;99.90;;;;;;5093530;28;20192;-75
2022/12/08 13:02:35;;;;;;;4.80;4.30;;;5.30;99.90;;;;;;5094882;28;20184;-75